sensor_id;sensor_type;location;lat;lon;timestamp;pressure;altitude;pressure_sealevel;temperature;humidity
6668;BME280;3370;47.712;9.082;2022-08-03T00:01:43;97061.34;;;20.71;73.70
6668;BME280;3370;47.712;9.082;2022-08-03T00:04:10;97067.38;;;20.71;73.51
6668;BME280;3370;47.712;9.082;2022-08-03T00:06:36;97061.78;;;20.55;74.70
6668;BME280;3370;47.712;9.082;2022-08-03T00:09:05;97069.72;;;20.22;76.43
6668;BME280;3370;47.712;9.082;2022-08-03T00:11:32;97065.38;;;20.02;77.94
6668;BME280;3370;47.712;9.082;2022-08-03T00:13:58;97061.34;;;20.19;77.03
6668;BME280;3370;47.712;9.082;2022-08-03T00:16:24;97063.50;;;20.14;77.65
6668;BME280;3370;47.712;9.082;2022-08-03T00:18:51;97064.19;;;20.16;77.77
6668;BME280;3370;47.712;9.082;2022-08-03T00:21:17;97062.09;;;20.09;77.72
6668;BME280;3370;47.712;9.082;2022-08-03T00:23:43;97055.78;;;20.12;77.61
6668;BME280;3370;47.712;9.082;2022-08-03T00:26:09;97060.34;;;19.89;78.85
6668;BME280;3370;47.712;9.082;2022-08-03T00:28:34;97063.25;;;19.75;79.36
6668;BME280;3370;47.712;9.082;2022-08-03T00:31:00;97061.66;;;19.72;79.83
6668;BME280;3370;47.712;9.082;2022-08-03T00:33:26;97056.72;;;19.69;79.70
6668;BME280;3370;47.712;9.082;2022-08-03T00:35:52;97047.59;;;19.63;80.04
6668;BME280;3370;47.712;9.082;2022-08-03T00:38:19;97052.25;;;19.60;80.67
6668;BME280;3370;47.712;9.082;2022-08-03T00:40:45;97054.28;;;19.56;80.56
6668;BME280;3370;47.712;9.082;2022-08-03T00:43:11;97044.81;;;19.55;80.95
6668;BME280;3370;47.712;9.082;2022-08-03T00:45:40;97048.50;;;19.52;80.90
6668;BME280;3370;47.712;9.082;2022-08-03T00:48:08;97045.03;;;19.52;81.32
6668;BME280;3370;47.712;9.082;2022-08-03T00:50:40;97042.94;;;19.46;81.69
6668;BME280;3370;47.712;9.082;2022-08-03T00:53:09;97041.84;;;19.48;81.44
6668;BME280;3370;47.712;9.082;2022-08-03T00:55:35;97049.38;;;19.63;80.41
6668;BME280;3370;47.712;9.082;2022-08-03T00:58:03;97040.22;;;19.68;80.34
6668;BME280;3370;47.712;9.082;2022-08-03T01:00:34;97048.91;;;19.69;80.35
6668;BME280;3370;47.712;9.082;2022-08-03T01:03:01;97047.34;;;19.66;79.90
6668;BME280;3370;47.712;9.082;2022-08-03T01:05:28;97053.28;;;19.68;80.07
6668;BME280;3370;47.712;9.082;2022-08-03T01:11:14;97045.78;;;19.43;81.27
6668;BME280;3370;47.712;9.082;2022-08-03T01:16:35;97044.84;;;19.44;81.21
6668;BME280;3370;47.712;9.082;2022-08-03T01:19:53;97053.56;;;19.54;80.78
6668;BME280;3370;47.712;9.082;2022-08-03T01:28:57;97048.41;;;19.43;80.53
6668;BME280;3370;47.712;9.082;2022-08-03T01:31:42;97042.13;;;19.13;82.68
6668;BME280;3370;47.712;9.082;2022-08-03T01:34:12;97049.00;;;19.03;83.34
6668;BME280;3370;47.712;9.082;2022-08-03T01:36:43;97044.88;;;19.00;83.78
6668;BME280;3370;47.712;9.082;2022-08-03T01:39:14;97047.59;;;18.99;83.54
6668;BME280;3370;47.712;9.082;2022-08-03T01:41:49;97043.59;;;18.94;84.37
6668;BME280;3370;47.712;9.082;2022-08-03T01:44:16;97044.03;;;18.88;85.12
6668;BME280;3370;47.712;9.082;2022-08-03T01:46:43;97042.41;;;18.87;85.07
6668;BME280;3370;47.712;9.082;2022-08-03T01:49:11;97042.25;;;18.89;85.00
6668;BME280;3370;47.712;9.082;2022-08-03T01:51:42;97040.16;;;18.83;85.42
6668;BME280;3370;47.712;9.082;2022-08-03T01:54:12;97042.16;;;18.90;85.20
6668;BME280;3370;47.712;9.082;2022-08-03T01:56:39;97030.94;;;19.22;83.34
6668;BME280;3370;47.712;9.082;2022-08-03T01:59:09;97044.44;;;19.27;82.93
6668;BME280;3370;47.712;9.082;2022-08-03T02:01:37;97043.28;;;19.20;83.30
6668;BME280;3370;47.712;9.082;2022-08-03T02:04:04;97041.09;;;18.93;84.95
6668;BME280;3370;47.712;9.082;2022-08-03T02:06:33;97040.16;;;18.83;85.41
6668;BME280;3370;47.712;9.082;2022-08-03T02:09:02;97041.88;;;19.05;84.62
6668;BME280;3370;47.712;9.082;2022-08-03T02:11:30;97034.56;;;18.99;84.97
6668;BME280;3370;47.712;9.082;2022-08-03T02:14:01;97034.31;;;18.79;86.91
6668;BME280;3370;47.712;9.082;2022-08-03T02:16:30;97034.81;;;18.73;87.68
6668;BME280;3370;47.712;9.082;2022-08-03T02:19:00;97029.84;;;18.70;87.49
6668;BME280;3370;47.712;9.082;2022-08-03T02:21:28;97033.16;;;18.61;88.03
6668;BME280;3370;47.712;9.082;2022-08-03T02:23:55;97036.22;;;18.54;88.51
6668;BME280;3370;47.712;9.082;2022-08-03T02:26:22;97033.78;;;18.53;88.81
6668;BME280;3370;47.712;9.082;2022-08-03T02:28:51;97037.41;;;18.95;85.74
6668;BME280;3370;47.712;9.082;2022-08-03T02:31:23;97035.22;;;19.12;84.66
6668;BME280;3370;47.712;9.082;2022-08-03T02:33:56;97028.41;;;18.88;86.01
6668;BME280;3370;47.712;9.082;2022-08-03T02:36:28;97029.47;;;18.63;88.67
6668;BME280;3370;47.712;9.082;2022-08-03T02:38:58;97021.19;;;18.58;89.59
6668;BME280;3370;47.712;9.082;2022-08-03T02:41:48;97019.56;;;18.57;89.52
6668;BME280;3370;47.712;9.082;2022-08-03T02:44:22;97031.28;;;18.51;89.86
6668;BME280;3370;47.712;9.082;2022-08-03T02:46:56;97019.91;;;18.41;90.88
6668;BME280;3370;47.712;9.082;2022-08-03T02:49:24;97020.59;;;18.54;89.37
6668;BME280;3370;47.712;9.082;2022-08-03T02:51:52;97028.56;;;18.53;89.50
6668;BME280;3370;47.712;9.082;2022-08-03T02:54:21;97025.00;;;18.43;90.44
6668;BME280;3370;47.712;9.082;2022-08-03T02:56:52;97026.78;;;18.42;90.11
6668;BME280;3370;47.712;9.082;2022-08-03T02:59:19;97024.28;;;18.86;87.11
6668;BME280;3370;47.712;9.082;2022-08-03T03:01:45;97030.53;;;19.06;86.09
6668;BME280;3370;47.712;9.082;2022-08-03T03:04:12;97023.63;;;19.05;85.59
6668;BME280;3370;47.712;9.082;2022-08-03T03:06:39;97025.34;;;18.94;86.04
6668;BME280;3370;47.712;9.082;2022-08-03T03:09:06;97023.31;;;18.75;87.66
6668;BME280;3370;47.712;9.082;2022-08-03T03:11:37;97018.81;;;18.89;86.34
6668;BME280;3370;47.712;9.082;2022-08-03T03:14:03;97025.09;;;18.86;85.95
6668;BME280;3370;47.712;9.082;2022-08-03T03:16:30;97021.56;;;18.87;86.39
6668;BME280;3370;47.712;9.082;2022-08-03T03:18:57;97018.34;;;18.72;86.98
6668;BME280;3370;47.712;9.082;2022-08-03T03:21:25;97025.94;;;18.42;88.33
6668;BME280;3370;47.712;9.082;2022-08-03T03:23:52;97017.78;;;18.35;88.57
6668;BME280;3370;47.712;9.082;2022-08-03T03:26:18;97025.56;;;18.24;89.74
6668;BME280;3370;47.712;9.082;2022-08-03T03:28:45;97027.72;;;18.30;89.29
6668;BME280;3370;47.712;9.082;2022-08-03T03:31:11;97033.38;;;18.24;89.74
6668;BME280;3370;47.712;9.082;2022-08-03T03:33:37;97024.97;;;18.09;91.15
6668;BME280;3370;47.712;9.082;2022-08-03T03:36:05;97033.28;;;18.36;88.92
6668;BME280;3370;47.712;9.082;2022-08-03T03:38:32;97036.00;;;18.57;87.82
6668;BME280;3370;47.712;9.082;2022-08-03T03:41:00;97028.44;;;18.66;87.17
6668;BME280;3370;47.712;9.082;2022-08-03T03:43:26;97036.00;;;18.35;88.43
6668;BME280;3370;47.712;9.082;2022-08-03T03:45:54;97038.69;;;18.11;90.37
6668;BME280;3370;47.712;9.082;2022-08-03T03:48:20;97040.69;;;18.07;91.01
6668;BME280;3370;47.712;9.082;2022-08-03T03:50:48;97035.53;;;18.18;89.97
6668;BME280;3370;47.712;9.082;2022-08-03T03:53:14;97033.75;;;18.19;89.18
6668;BME280;3370;47.712;9.082;2022-08-03T03:55:40;97044.00;;;17.98;90.73
6668;BME280;3370;47.712;9.082;2022-08-03T03:58:07;97046.09;;;17.93;91.31
6668;BME280;3370;47.712;9.082;2022-08-03T04:00:33;97043.56;;;17.80;92.36
6668;BME280;3370;47.712;9.082;2022-08-03T04:02:59;97041.09;;;17.78;93.21
6668;BME280;3370;47.712;9.082;2022-08-03T04:05:25;97051.97;;;17.83;92.75
6668;BME280;3370;47.712;9.082;2022-08-03T04:08:14;97046.75;;;17.83;93.31
6668;BME280;3370;47.712;9.082;2022-08-03T04:16:31;97046.06;;;17.81;93.23
6668;BME280;3370;47.712;9.082;2022-08-03T04:19:03;97048.16;;;17.76;93.93
6668;BME280;3370;47.712;9.082;2022-08-03T04:21:31;97044.03;;;17.74;94.12
6668;BME280;3370;47.712;9.082;2022-08-03T04:24:03;97051.38;;;17.80;93.54
6668;BME280;3370;47.712;9.082;2022-08-03T04:26:38;97051.31;;;17.93;92.46
6668;BME280;3370;47.712;9.082;2022-08-03T04:29:05;97047.78;;;17.94;92.23
6668;BME280;3370;47.712;9.082;2022-08-03T04:31:33;97046.25;;;17.91;92.50
6668;BME280;3370;47.712;9.082;2022-08-03T04:34:01;97049.38;;;18.19;90.69
6668;BME280;3370;47.712;9.082;2022-08-03T04:36:32;97054.91;;;18.14;90.77
6668;BME280;3370;47.712;9.082;2022-08-03T04:39:07;97045.94;;;18.18;91.03
6668;BME280;3370;47.712;9.082;2022-08-03T04:41:35;97048.19;;;18.34;89.86
6668;BME280;3370;47.712;9.082;2022-08-03T04:44:04;97056.34;;;18.41;89.23
6668;BME280;3370;47.712;9.082;2022-08-03T04:46:37;97059.19;;;18.38;89.36
6668;BME280;3370;47.712;9.082;2022-08-03T04:49:05;97056.25;;;18.31;90.02
6668;BME280;3370;47.712;9.082;2022-08-03T04:51:32;97058.72;;;18.44;88.86
6668;BME280;3370;47.712;9.082;2022-08-03T04:54:03;97057.53;;;18.59;88.17
6668;BME280;3370;47.712;9.082;2022-08-03T04:56:29;97056.47;;;18.51;87.38
6668;BME280;3370;47.712;9.082;2022-08-03T04:58:55;97059.31;;;18.59;87.61
6668;BME280;3370;47.712;9.082;2022-08-03T05:01:21;97068.91;;;18.70;86.73
6668;BME280;3370;47.712;9.082;2022-08-03T05:03:47;97062.97;;;18.79;86.29
6668;BME280;3370;47.712;9.082;2022-08-03T05:06:13;97068.91;;;18.70;86.55
6668;BME280;3370;47.712;9.082;2022-08-03T05:08:39;97067.72;;;18.63;86.87
6668;BME280;3370;47.712;9.082;2022-08-03T05:11:05;97063.13;;;18.55;88.32
6668;BME280;3370;47.712;9.082;2022-08-03T05:13:30;97077.66;;;18.46;88.45
6668;BME280;3370;47.712;9.082;2022-08-03T05:15:56;97069.63;;;18.49;89.13
6668;BME280;3370;47.712;9.082;2022-08-03T05:18:22;97072.22;;;18.61;88.57
6668;BME280;3370;47.712;9.082;2022-08-03T05:20:48;97077.44;;;18.83;86.05
6668;BME280;3370;47.712;9.082;2022-08-03T05:23:14;97074.94;;;19.04;84.87
6668;BME280;3370;47.712;9.082;2022-08-03T05:25:40;97079.56;;;19.01;83.93
6668;BME280;3370;47.712;9.082;2022-08-03T05:28:05;97081.00;;;18.82;86.18
6668;BME280;3370;47.712;9.082;2022-08-03T05:30:31;97076.22;;;18.76;86.44
6668;BME280;3370;47.712;9.082;2022-08-03T05:32:57;97078.75;;;19.00;85.94
6668;BME280;3370;47.712;9.082;2022-08-03T05:35:24;97078.97;;;18.97;85.94
6668;BME280;3370;47.712;9.082;2022-08-03T05:37:50;97087.00;;;19.05;86.12
6668;BME280;3370;47.712;9.082;2022-08-03T05:40:16;97093.78;;;18.96;87.17
6668;BME280;3370;47.712;9.082;2022-08-03T05:42:42;97086.28;;;19.03;87.78
6668;BME280;3370;47.712;9.082;2022-08-03T05:45:09;97090.00;;;19.01;88.90
6668;BME280;3370;47.712;9.082;2022-08-03T05:47:45;97091.63;;;19.02;90.08
6668;BME280;3370;47.712;9.082;2022-08-03T05:50:11;97090.94;;;19.11;88.81
6668;BME280;3370;47.712;9.082;2022-08-03T05:52:39;97088.19;;;19.56;86.78
6668;BME280;3370;47.712;9.082;2022-08-03T05:55:06;97086.03;;;19.61;85.88
6668;BME280;3370;47.712;9.082;2022-08-03T05:57:33;97087.63;;;19.52;87.38
6668;BME280;3370;47.712;9.082;2022-08-03T06:00:01;97090.00;;;19.44;87.91
6668;BME280;3370;47.712;9.082;2022-08-03T06:02:26;97087.00;;;19.60;87.61
6668;BME280;3370;47.712;9.082;2022-08-03T06:04:53;97088.28;;;19.66;88.47
6668;BME280;3370;47.712;9.082;2022-08-03T06:07:19;97096.09;;;19.98;86.88
6668;BME280;3370;47.712;9.082;2022-08-03T06:09:44;97087.06;;;20.02;83.98
6668;BME280;3370;47.712;9.082;2022-08-03T06:12:10;97091.59;;;20.00;85.10
6668;BME280;3370;47.712;9.082;2022-08-03T06:14:36;97086.44;;;19.89;87.04
6668;BME280;3370;47.712;9.082;2022-08-03T06:17:02;97086.66;;;19.86;87.49
6668;BME280;3370;47.712;9.082;2022-08-03T06:19:27;97089.75;;;19.91;86.90
6668;BME280;3370;47.712;9.082;2022-08-03T06:21:53;97088.31;;;19.87;85.94
6668;BME280;3370;47.712;9.082;2022-08-03T06:24:19;97091.66;;;19.89;86.56
6668;BME280;3370;47.712;9.082;2022-08-03T06:26:45;97092.47;;;19.89;86.13
6668;BME280;3370;47.712;9.082;2022-08-03T06:29:11;97090.13;;;20.07;85.25
6668;BME280;3370;47.712;9.082;2022-08-03T06:31:37;97091.13;;;19.95;83.28
6668;BME280;3370;47.712;9.082;2022-08-03T06:34:04;97086.34;;;20.21;80.73
6668;BME280;3370;47.712;9.082;2022-08-03T06:36:30;97089.53;;;20.04;81.69
6668;BME280;3370;47.712;9.082;2022-08-03T06:38:57;97095.19;;;20.30;82.81
6668;BME280;3370;47.712;9.082;2022-08-03T06:41:25;97089.63;;;20.44;84.20
6668;BME280;3370;47.712;9.082;2022-08-03T06:43:51;97090.31;;;20.46;82.53
6668;BME280;3370;47.712;9.082;2022-08-03T06:46:17;97094.50;;;20.28;82.64
6668;BME280;3370;47.712;9.082;2022-08-03T06:48:44;97097.09;;;20.28;81.76
6668;BME280;3370;47.712;9.082;2022-08-03T06:51:10;97098.91;;;20.27;82.17
6668;BME280;3370;47.712;9.082;2022-08-03T06:53:35;97103.09;;;20.40;83.21
6668;BME280;3370;47.712;9.082;2022-08-03T06:56:04;97100.50;;;20.40;82.60
6668;BME280;3370;47.712;9.082;2022-08-03T06:58:30;97093.38;;;20.52;79.34
6668;BME280;3370;47.712;9.082;2022-08-03T07:00:56;97092.44;;;20.53;79.85
6668;BME280;3370;47.712;9.082;2022-08-03T07:03:22;97102.88;;;20.53;79.23
6668;BME280;3370;47.712;9.082;2022-08-03T07:05:48;97098.09;;;20.58;81.15
6668;BME280;3370;47.712;9.082;2022-08-03T07:08:16;97101.66;;;20.57;80.07
6668;BME280;3370;47.712;9.082;2022-08-03T07:10:42;97095.94;;;20.63;80.76
6668;BME280;3370;47.712;9.082;2022-08-03T07:13:09;97102.00;;;20.63;79.13
6668;BME280;3370;47.712;9.082;2022-08-03T07:15:35;97097.84;;;20.61;79.24
6668;BME280;3370;47.712;9.082;2022-08-03T07:18:01;97099.31;;;20.84;79.92
6668;BME280;3370;47.712;9.082;2022-08-03T07:20:28;97091.97;;;20.99;78.85
6668;BME280;3370;47.712;9.082;2022-08-03T07:22:54;97102.69;;;21.06;76.40
6668;BME280;3370;47.712;9.082;2022-08-03T07:25:19;97095.53;;;21.08;75.56
6668;BME280;3370;47.712;9.082;2022-08-03T07:27:46;97092.00;;;21.09;77.56
6668;BME280;3370;47.712;9.082;2022-08-03T07:30:14;97081.28;;;21.12;76.73
6668;BME280;3370;47.712;9.082;2022-08-03T07:32:41;97087.31;;;21.13;76.70
6668;BME280;3370;47.712;9.082;2022-08-03T07:35:08;97094.34;;;21.12;77.57
6668;BME280;3370;47.712;9.082;2022-08-03T07:37:35;97088.81;;;21.15;77.77
6668;BME280;3370;47.712;9.082;2022-08-03T07:40:03;97089.69;;;21.25;77.94
6668;BME280;3370;47.712;9.082;2022-08-03T07:42:30;97095.47;;;21.39;76.59
6668;BME280;3370;47.712;9.082;2022-08-03T07:44:57;97092.84;;;21.39;76.65
6668;BME280;3370;47.712;9.082;2022-08-03T07:47:26;97093.19;;;21.46;76.90
6668;BME280;3370;47.712;9.082;2022-08-03T07:49:54;97084.66;;;21.53;77.70
6668;BME280;3370;47.712;9.082;2022-08-03T07:52:20;97092.66;;;21.61;76.22
6668;BME280;3370;47.712;9.082;2022-08-03T07:55:06;97091.41;;;21.66;76.81
6668;BME280;3370;47.712;9.082;2022-08-03T07:57:32;97088.78;;;21.66;76.63
6668;BME280;3370;47.712;9.082;2022-08-03T07:59:58;97094.16;;;21.83;76.40
6668;BME280;3370;47.712;9.082;2022-08-03T08:02:24;97092.38;;;21.94;75.89
6668;BME280;3370;47.712;9.082;2022-08-03T08:04:50;97092.78;;;21.89;75.46
6668;BME280;3370;47.712;9.082;2022-08-03T08:07:16;97086.84;;;22.07;74.85
6668;BME280;3370;47.712;9.082;2022-08-03T08:09:42;97083.09;;;22.19;75.32
6668;BME280;3370;47.712;9.082;2022-08-03T08:12:08;97083.91;;;22.29;75.79
6668;BME280;3370;47.712;9.082;2022-08-03T08:14:36;97082.41;;;22.27;72.22
6668;BME280;3370;47.712;9.082;2022-08-03T08:17:02;97082.13;;;22.20;73.52
6668;BME280;3370;47.712;9.082;2022-08-03T08:19:28;97082.41;;;22.27;73.96
6668;BME280;3370;47.712;9.082;2022-08-03T08:21:53;97083.25;;;22.27;74.06
6668;BME280;3370;47.712;9.082;2022-08-03T08:24:19;97079.59;;;22.48;77.04
6668;BME280;3370;47.712;9.082;2022-08-03T08:26:45;97082.28;;;22.66;76.18
6668;BME280;3370;47.712;9.082;2022-08-03T08:29:11;97078.16;;;22.63;77.66
6668;BME280;3370;47.712;9.082;2022-08-03T08:31:37;97078.16;;;22.63;76.20
6668;BME280;3370;47.712;9.082;2022-08-03T08:34:03;97085.25;;;22.81;78.68
6668;BME280;3370;47.712;9.082;2022-08-03T08:36:32;97081.09;;;22.88;73.09
6668;BME280;3370;47.712;9.082;2022-08-03T08:38:58;97088.38;;;22.94;74.59
6668;BME280;3370;47.712;9.082;2022-08-03T08:41:24;97082.13;;;22.77;71.93
6668;BME280;3370;47.712;9.082;2022-08-03T08:43:50;97078.91;;;22.83;72.11
6668;BME280;3370;47.712;9.082;2022-08-03T08:46:17;97082.41;;;23.02;72.61
6668;BME280;3370;47.712;9.082;2022-08-03T08:48:45;97079.78;;;23.02;72.78
6668;BME280;3370;47.712;9.082;2022-08-03T08:51:13;97080.06;;;22.98;72.19
6668;BME280;3370;47.712;9.082;2022-08-03T08:53:43;97071.31;;;23.18;74.33
6668;BME280;3370;47.712;9.082;2022-08-03T08:56:13;97080.41;;;23.41;73.51
6668;BME280;3370;47.712;9.082;2022-08-03T08:58:49;97077.25;;;23.56;73.60
6668;BME280;3370;47.712;9.082;2022-08-03T09:01:19;97081.78;;;23.81;70.79
6668;BME280;3370;47.712;9.082;2022-08-03T09:03:47;97082.81;;;23.88;71.79
6668;BME280;3370;47.712;9.082;2022-08-03T09:06:13;97084.28;;;23.73;71.60
6668;BME280;3370;47.712;9.082;2022-08-03T09:08:42;97084.75;;;23.68;71.73
6668;BME280;3370;47.712;9.082;2022-08-03T09:11:08;97086.19;;;23.63;71.28
6668;BME280;3370;47.712;9.082;2022-08-03T09:13:34;97078.03;;;23.66;70.84
6668;BME280;3370;47.712;9.082;2022-08-03T09:16:20;97082.28;;;23.67;71.06
6668;BME280;3370;47.712;9.082;2022-08-03T09:18:52;97078.75;;;23.76;69.92
6668;BME280;3370;47.712;9.082;2022-08-03T09:21:26;97078.75;;;23.94;71.58
6668;BME280;3370;47.712;9.082;2022-08-03T09:23:56;97077.03;;;24.03;68.10
6668;BME280;3370;47.712;9.082;2022-08-03T09:26:28;97081.00;;;24.33;69.70
6668;BME280;3370;47.712;9.082;2022-08-03T09:29:00;97088.78;;;24.43;66.96
6668;BME280;3370;47.712;9.082;2022-08-03T09:31:34;97077.81;;;24.47;66.49
6668;BME280;3370;47.712;9.082;2022-08-03T09:34:04;97076.44;;;24.61;65.75
6668;BME280;3370;47.712;9.082;2022-08-03T09:36:45;97082.19;;;24.65;65.35
6668;BME280;3370;47.712;9.082;2022-08-03T09:39:25;97070.88;;;24.73;63.60
6668;BME280;3370;47.712;9.082;2022-08-03T09:42:24;97073.94;;;24.94;64.76
6668;BME280;3370;47.712;9.082;2022-08-03T09:44:52;97062.19;;;25.15;66.16
6668;BME280;3370;47.712;9.082;2022-08-03T09:47:33;97068.44;;;25.22;62.33
6668;BME280;3370;47.712;9.082;2022-08-03T09:50:06;97069.78;;;25.34;62.52
6668;BME280;3370;47.712;9.082;2022-08-03T09:52:38;97069.16;;;25.40;62.28
6668;BME280;3370;47.712;9.082;2022-08-03T09:55:13;97070.50;;;25.53;62.64
6668;BME280;3370;47.712;9.082;2022-08-03T09:57:39;97069.53;;;25.62;60.29
6668;BME280;3370;47.712;9.082;2022-08-03T10:00:14;97061.13;;;25.67;60.68
6668;BME280;3370;47.712;9.082;2022-08-03T10:02:43;97060.81;;;25.70;59.48
6668;BME280;3370;47.712;9.082;2022-08-03T10:05:11;97060.16;;;25.84;62.64
6668;BME280;3370;47.712;9.082;2022-08-03T10:07:48;97057.03;;;25.80;59.74
6668;BME280;3370;47.712;9.082;2022-08-03T10:10:16;97058.03;;;25.96;60.23
6668;BME280;3370;47.712;9.082;2022-08-03T10:12:44;97056.72;;;26.00;57.92
6668;BME280;3370;47.712;9.082;2022-08-03T10:15:10;97053.06;;;26.17;59.96
6668;BME280;3370;47.712;9.082;2022-08-03T10:17:37;97054.34;;;26.38;57.22
6668;BME280;3370;47.712;9.082;2022-08-03T10:20:05;97058.13;;;26.44;56.67
6668;BME280;3370;47.712;9.082;2022-08-03T10:22:35;97057.13;;;26.45;56.04
6668;BME280;3370;47.712;9.082;2022-08-03T10:25:09;97048.66;;;26.57;57.82
6668;BME280;3370;47.712;9.082;2022-08-03T10:27:41;97050.56;;;26.88;56.05
6668;BME280;3370;47.712;9.082;2022-08-03T10:30:12;97048.50;;;27.07;56.88
6668;BME280;3370;47.712;9.082;2022-08-03T10:35:20;97052.31;;;27.35;54.97
6668;BME280;3370;47.712;9.082;2022-08-03T10:38:09;97042.66;;;27.20;53.30
6668;BME280;3370;47.712;9.082;2022-08-03T10:40:37;97035.31;;;27.38;54.49
6668;BME280;3370;47.712;9.082;2022-08-03T10:43:27;97037.88;;;27.46;51.33
6668;BME280;3370;47.712;9.082;2022-08-03T10:45:56;97037.41;;;27.66;51.98
6668;BME280;3370;47.712;9.082;2022-08-03T10:48:24;97029.66;;;27.87;50.55
6668;BME280;3370;47.712;9.082;2022-08-03T10:50:51;97029.72;;;28.17;49.38
6668;BME280;3370;47.712;9.082;2022-08-03T10:53:39;97029.00;;;28.23;49.95
6668;BME280;3370;47.712;9.082;2022-08-03T11:02:13;97020.09;;;29.20;46.74
6668;BME280;3370;47.712;9.082;2022-08-03T11:04:40;97020.72;;;29.44;48.06
6668;BME280;3370;47.712;9.082;2022-08-03T11:07:19;97023.38;;;29.44;45.98
6668;BME280;3370;47.712;9.082;2022-08-03T11:09:55;97019.78;;;29.73;45.75
6668;BME280;3370;47.712;9.082;2022-08-03T11:12:29;97019.44;;;30.05;45.16
6668;BME280;3370;47.712;9.082;2022-08-03T11:15:01;97014.31;;;30.31;44.17
6668;BME280;3370;47.712;9.082;2022-08-03T11:17:28;97013.38;;;30.46;43.86
6668;BME280;3370;47.712;9.082;2022-08-03T11:19:54;97017.53;;;30.55;47.00
6668;BME280;3370;47.712;9.082;2022-08-03T11:22:20;97014.81;;;30.90;44.34
6668;BME280;3370;47.712;9.082;2022-08-03T11:27:29;97005.69;;;30.57;43.42
6668;BME280;3370;47.712;9.082;2022-08-03T11:35:28;97000.63;;;31.18;41.95
6668;BME280;3370;47.712;9.082;2022-08-03T11:40:51;97000.50;;;31.86;38.84
6668;BME280;3370;47.712;9.082;2022-08-03T11:46:08;96985.97;;;32.15;37.79
6668;BME280;3370;47.712;9.082;2022-08-03T11:48:51;96994.50;;;32.37;38.13
6668;BME280;3370;47.712;9.082;2022-08-03T11:51:29;96984.13;;;33.26;36.80
6668;BME280;3370;47.712;9.082;2022-08-03T11:54:06;96986.97;;;33.56;36.49
6668;BME280;3370;47.712;9.082;2022-08-03T11:56:48;96975.84;;;33.66;34.92
6668;BME280;3370;47.712;9.082;2022-08-03T11:59:15;96979.38;;;33.28;32.87
6668;BME280;3370;47.712;9.082;2022-08-03T12:01:42;96980.63;;;33.83;34.08
6668;BME280;3370;47.712;9.082;2022-08-03T12:04:10;96982.19;;;33.90;33.24
6668;BME280;3370;47.712;9.082;2022-08-03T12:06:36;96973.84;;;34.05;32.17
6668;BME280;3370;47.712;9.082;2022-08-03T12:09:21;96972.97;;;34.11;32.38
6668;BME280;3370;47.712;9.082;2022-08-03T12:11:48;96972.28;;;33.97;33.17
6668;BME280;3370;47.712;9.082;2022-08-03T12:14:19;96970.31;;;33.68;33.32
6668;BME280;3370;47.712;9.082;2022-08-03T12:16:48;96974.41;;;34.51;32.03
6668;BME280;3370;47.712;9.082;2022-08-03T12:19:14;96974.88;;;34.04;30.59
6668;BME280;3370;47.712;9.082;2022-08-03T12:21:50;96972.19;;;33.86;30.82
6668;BME280;3370;47.712;9.082;2022-08-03T12:24:16;96976.31;;;33.56;29.49
6668;BME280;3370;47.712;9.082;2022-08-03T12:26:49;96965.22;;;33.34;30.97
6668;BME280;3370;47.712;9.082;2022-08-03T12:29:20;96967.56;;;33.99;31.15
6668;BME280;3370;47.712;9.082;2022-08-03T12:31:47;96970.34;;;34.30;31.37
6668;BME280;3370;47.712;9.082;2022-08-03T12:34:14;96964.72;;;35.17;28.99
6668;BME280;3370;47.712;9.082;2022-08-03T12:36:52;96959.00;;;35.02;27.05
6668;BME280;3370;47.712;9.082;2022-08-03T12:39:24;96957.16;;;35.56;25.82
6668;BME280;3370;47.712;9.082;2022-08-03T12:41:54;96955.63;;;35.37;27.15
6668;BME280;3370;47.712;9.082;2022-08-03T12:44:35;96958.56;;;35.47;27.53
6668;BME280;3370;47.712;9.082;2022-08-03T12:47:03;96955.84;;;35.35;26.87
6668;BME280;3370;47.712;9.082;2022-08-03T12:50:03;96963.53;;;35.55;25.58
6668;BME280;3370;47.712;9.082;2022-08-03T12:52:42;96956.59;;;35.12;25.46
6668;BME280;3370;47.712;9.082;2022-08-03T12:55:19;96957.56;;;35.83;27.24
6668;BME280;3370;47.712;9.082;2022-08-03T12:57:45;96962.56;;;35.92;26.60
6668;BME280;3370;47.712;9.082;2022-08-03T13:00:14;96962.50;;;35.68;27.06
6668;BME280;3370;47.712;9.082;2022-08-03T13:02:40;96963.16;;;35.70;25.65
6668;BME280;3370;47.712;9.082;2022-08-03T13:05:15;96968.59;;;36.11;26.19
6668;BME280;3370;47.712;9.082;2022-08-03T13:07:44;96973.19;;;36.51;25.27
6668;BME280;3370;47.712;9.082;2022-08-03T13:10:11;96964.66;;;36.65;25.94
6668;BME280;3370;47.712;9.082;2022-08-03T13:12:51;96963.41;;;36.97;26.20
6668;BME280;3370;47.712;9.082;2022-08-03T13:15:17;96961.00;;;36.83;25.14
6668;BME280;3370;47.712;9.082;2022-08-03T13:17:43;96962.22;;;35.88;24.44
6668;BME280;3370;47.712;9.082;2022-08-03T13:20:09;96964.28;;;36.33;24.60
6668;BME280;3370;47.712;9.082;2022-08-03T13:22:35;96966.38;;;36.83;23.17
6668;BME280;3370;47.712;9.082;2022-08-03T13:25:02;96963.44;;;36.85;24.54
6668;BME280;3370;47.712;9.082;2022-08-03T13:27:30;96959.28;;;37.06;23.87
6668;BME280;3370;47.712;9.082;2022-08-03T13:29:57;96956.84;;;37.05;23.92
6668;BME280;3370;47.712;9.082;2022-08-03T13:32:23;96953.94;;;36.65;24.30
6668;BME280;3370;47.712;9.082;2022-08-03T13:34:49;96945.34;;;36.75;23.80
6668;BME280;3370;47.712;9.082;2022-08-03T13:37:15;96942.63;;;37.04;24.67
6668;BME280;3370;47.712;9.082;2022-08-03T13:39:42;96948.38;;;37.25;23.16
6668;BME280;3370;47.712;9.082;2022-08-03T13:42:08;96946.94;;;37.05;23.10
6668;BME280;3370;47.712;9.082;2022-08-03T13:44:34;96951.59;;;36.17;23.92
6668;BME280;3370;47.712;9.082;2022-08-03T13:47:03;96946.41;;;35.86;23.83
6668;BME280;3370;47.712;9.082;2022-08-03T13:49:29;96943.59;;;35.81;24.10
6668;BME280;3370;47.712;9.082;2022-08-03T13:51:56;96931.03;;;36.70;22.76
6668;BME280;3370;47.712;9.082;2022-08-03T13:54:22;96937.28;;;36.75;22.93
6668;BME280;3370;47.712;9.082;2022-08-03T13:56:48;96937.53;;;36.62;22.55
6668;BME280;3370;47.712;9.082;2022-08-03T13:59:22;96928.41;;;36.46;23.41
6668;BME280;3370;47.712;9.082;2022-08-03T14:01:50;96931.72;;;36.65;22.20
6668;BME280;3370;47.712;9.082;2022-08-03T14:04:16;96930.91;;;36.64;23.35
6668;BME280;3370;47.712;9.082;2022-08-03T14:06:43;96931.63;;;36.89;23.00
6668;BME280;3370;47.712;9.082;2022-08-03T14:09:11;96922.22;;;36.86;23.84
6668;BME280;3370;47.712;9.082;2022-08-03T14:11:39;96919.72;;;36.68;21.98
6668;BME280;3370;47.712;9.082;2022-08-03T14:14:05;96924.91;;;36.45;21.92